sensor_id;sensor_type;location;lat;lon;timestamp;P1;durP1;ratioP1;P2;durP2;ratioP2
51216;SDS011;37283;49.760;8.648;2023-07-20T00:01:34;5.93;;;2.83;;
51216;SDS011;37283;49.760;8.648;2023-07-20T00:04:01;3.83;;;1.88;;
51216;SDS011;37283;49.760;8.648;2023-07-20T00:06:28;4.95;;;1.95;;
51216;SDS011;37283;49.760;8.648;2023-07-20T00:08:56;5.20;;;2.00;;
51216;SDS011;37283;49.760;8.648;2023-07-20T00:11:24;4.40;;;1.80;;
51216;SDS011;37283;49.760;8.648;2023-07-20T00:16:18;4.82;;;3.55;;
51216;SDS011;37283;49.760;8.648;2023-07-20T00:18:45;4.45;;;3.70;;
51216;SDS011;37283;49.760;8.648;2023-07-20T00:21:11;6.30;;;1.90;;
51216;SDS011;37283;49.760;8.648;2023-07-20T00:23:38;5.60;;;1.98;;
51216;SDS011;37283;49.760;8.648;2023-07-20T00:26:04;3.55;;;1.70;;
51216;SDS011;37283;49.760;8.648;2023-07-20T00:28:31;7.75;;;1.63;;
51216;SDS011;37283;49.760;8.648;2023-07-20T00:30:59;5.43;;;1.70;;
51216;SDS011;37283;49.760;8.648;2023-07-20T00:33:26;4.72;;;1.88;;
51216;SDS011;37283;49.760;8.648;2023-07-20T00:35:52;5.95;;;1.83;;
51216;SDS011;37283;49.760;8.648;2023-07-20T00:38:19;5.78;;;1.70;;
51216;SDS011;37283;49.760;8.648;2023-07-20T00:40:47;3.83;;;1.65;;
51216;SDS011;37283;49.760;8.648;2023-07-20T00:43:16;4.43;;;1.90;;
51216;SDS011;37283;49.760;8.648;2023-07-20T00:45:43;3.97;;;1.80;;
51216;SDS011;37283;49.760;8.648;2023-07-20T00:48:10;3.63;;;2.10;;
51216;SDS011;37283;49.760;8.648;2023-07-20T00:50:38;4.75;;;1.92;;
51216;SDS011;37283;49.760;8.648;2023-07-20T00:53:07;3.95;;;1.70;;
51216;SDS011;37283;49.760;8.648;2023-07-20T00:55:34;3.28;;;1.65;;
51216;SDS011;37283;49.760;8.648;2023-07-20T00:58:00;4.57;;;1.60;;
51216;SDS011;37283;49.760;8.648;2023-07-20T01:00:27;6.70;;;2.17;;
51216;SDS011;37283;49.760;8.648;2023-07-20T01:02:54;6.70;;;1.90;;
51216;SDS011;37283;49.760;8.648;2023-07-20T01:05:21;3.47;;;1.65;;
51216;SDS011;37283;49.760;8.648;2023-07-20T01:10:25;4.15;;;2.10;;
51216;SDS011;37283;49.760;8.648;2023-07-20T01:12:56;4.18;;;1.95;;
51216;SDS011;37283;49.760;8.648;2023-07-20T01:15:25;3.72;;;1.90;;
51216;SDS011;37283;49.760;8.648;2023-07-20T01:17:51;4.43;;;2.00;;
51216;SDS011;37283;49.760;8.648;2023-07-20T01:20:20;5.03;;;2.20;;
51216;SDS011;37283;49.760;8.648;2023-07-20T01:31:27;4.28;;;2.00;;
51216;SDS011;37283;49.760;8.648;2023-07-20T01:33:55;4.18;;;2.25;;
51216;SDS011;37283;49.760;8.648;2023-07-20T01:36:23;6.43;;;2.30;;
51216;SDS011;37283;49.760;8.648;2023-07-20T01:38:51;6.03;;;2.50;;
51216;SDS011;37283;49.760;8.648;2023-07-20T01:41:18;6.53;;;2.47;;
51216;SDS011;37283;49.760;8.648;2023-07-20T01:43:44;4.80;;;2.22;;
51216;SDS011;37283;49.760;8.648;2023-07-20T01:46:12;4.90;;;2.10;;
51216;SDS011;37283;49.760;8.648;2023-07-20T01:48:38;4.68;;;2.72;;
51216;SDS011;37283;49.760;8.648;2023-07-20T01:51:07;4.75;;;2.20;;
51216;SDS011;37283;49.760;8.648;2023-07-20T01:53:35;4.80;;;2.70;;
51216;SDS011;37283;49.760;8.648;2023-07-20T01:56:01;6.25;;;2.03;;
51216;SDS011;37283;49.760;8.648;2023-07-20T01:58:28;6.68;;;2.53;;
51216;SDS011;37283;49.760;8.648;2023-07-20T02:00:54;5.00;;;2.20;;
51216;SDS011;37283;49.760;8.648;2023-07-20T02:03:21;5.47;;;2.20;;
51216;SDS011;37283;49.760;8.648;2023-07-20T02:05:50;2.97;;;2.20;;
51216;SDS011;37283;49.760;8.648;2023-07-20T02:08:16;3.70;;;2.25;;
51216;SDS011;37283;49.760;8.648;2023-07-20T02:10:47;4.15;;;2.35;;
51216;SDS011;37283;49.760;8.648;2023-07-20T02:13:15;6.53;;;2.38;;
51216;SDS011;37283;49.760;8.648;2023-07-20T02:15:42;3.90;;;2.13;;
51216;SDS011;37283;49.760;8.648;2023-07-20T02:18:13;6.53;;;2.10;;
51216;SDS011;37283;49.760;8.648;2023-07-20T02:20:40;4.35;;;2.50;;
51216;SDS011;37283;49.760;8.648;2023-07-20T02:23:07;4.57;;;2.47;;
51216;SDS011;37283;49.760;8.648;2023-07-20T02:25:34;6.80;;;2.40;;
51216;SDS011;37283;49.760;8.648;2023-07-20T02:28:01;4.68;;;2.10;;
51216;SDS011;37283;49.760;8.648;2023-07-20T02:30:27;4.07;;;2.25;;
51216;SDS011;37283;49.760;8.648;2023-07-20T02:32:54;4.80;;;2.42;;
51216;SDS011;37283;49.760;8.648;2023-07-20T02:35:21;5.53;;;2.30;;
51216;SDS011;37283;49.760;8.648;2023-07-20T02:37:48;5.85;;;2.38;;
51216;SDS011;37283;49.760;8.648;2023-07-20T02:40:14;4.75;;;2.05;;
51216;SDS011;37283;49.760;8.648;2023-07-20T02:42:41;5.47;;;2.40;;
51216;SDS011;37283;49.760;8.648;2023-07-20T02:45:08;3.97;;;2.20;;
51216;SDS011;37283;49.760;8.648;2023-07-20T02:47:35;4.53;;;2.53;;
51216;SDS011;37283;49.760;8.648;2023-07-20T02:50:02;6.07;;;2.47;;
51216;SDS011;37283;49.760;8.648;2023-07-20T02:52:30;5.40;;;2.43;;
51216;SDS011;37283;49.760;8.648;2023-07-20T02:54:56;4.72;;;2.25;;
51216;SDS011;37283;49.760;8.648;2023-07-20T02:57:23;6.88;;;2.58;;
51216;SDS011;37283;49.760;8.648;2023-07-20T02:59:49;3.95;;;1.95;;
51216;SDS011;37283;49.760;8.648;2023-07-20T03:02:16;4.60;;;1.90;;
51216;SDS011;37283;49.760;8.648;2023-07-20T03:04:42;3.75;;;2.13;;
51216;SDS011;37283;49.760;8.648;2023-07-20T03:07:09;5.38;;;2.28;;
51216;SDS011;37283;49.760;8.648;2023-07-20T03:09:35;6.57;;;2.30;;
51216;SDS011;37283;49.760;8.648;2023-07-20T03:12:02;3.58;;;2.20;;
51216;SDS011;37283;49.760;8.648;2023-07-20T03:14:31;4.63;;;2.38;;
51216;SDS011;37283;49.760;8.648;2023-07-20T03:16:57;5.20;;;2.05;;
51216;SDS011;37283;49.760;8.648;2023-07-20T03:19:24;6.00;;;2.10;;
51216;SDS011;37283;49.760;8.648;2023-07-20T03:21:51;5.97;;;2.28;;
51216;SDS011;37283;49.760;8.648;2023-07-20T03:24:18;4.85;;;2.40;;
51216;SDS011;37283;49.760;8.648;2023-07-20T03:26:46;4.75;;;2.42;;
51216;SDS011;37283;49.760;8.648;2023-07-20T03:29:13;4.60;;;2.15;;
51216;SDS011;37283;49.760;8.648;2023-07-20T03:31:39;4.50;;;1.90;;
51216;SDS011;37283;49.760;8.648;2023-07-20T03:34:07;5.57;;;2.50;;
51216;SDS011;37283;49.760;8.648;2023-07-20T03:36:35;4.63;;;2.13;;
51216;SDS011;37283;49.760;8.648;2023-07-20T03:39:02;4.63;;;2.10;;
51216;SDS011;37283;49.760;8.648;2023-07-20T03:41:29;5.13;;;2.65;;
51216;SDS011;37283;49.760;8.648;2023-07-20T03:43:56;5.97;;;2.15;;
51216;SDS011;37283;49.760;8.648;2023-07-20T03:46:22;4.05;;;2.00;;
51216;SDS011;37283;49.760;8.648;2023-07-20T03:48:49;3.63;;;2.10;;
51216;SDS011;37283;49.760;8.648;2023-07-20T03:51:15;5.82;;;2.17;;
51216;SDS011;37283;49.760;8.648;2023-07-20T03:53:42;4.75;;;1.83;;
51216;SDS011;37283;49.760;8.648;2023-07-20T03:56:08;5.80;;;2.60;;
51216;SDS011;37283;49.760;8.648;2023-07-20T03:58:35;5.22;;;2.20;;
51216;SDS011;37283;49.760;8.648;2023-07-20T04:01:02;6.20;;;1.95;;
51216;SDS011;37283;49.760;8.648;2023-07-20T04:03:28;5.65;;;2.08;;
51216;SDS011;37283;49.760;8.648;2023-07-20T04:05:55;4.70;;;2.03;;
51216;SDS011;37283;49.760;8.648;2023-07-20T04:08:23;6.15;;;2.72;;
51216;SDS011;37283;49.760;8.648;2023-07-20T04:10:50;5.68;;;2.35;;
51216;SDS011;37283;49.760;8.648;2023-07-20T04:13:16;3.42;;;2.05;;
51216;SDS011;37283;49.760;8.648;2023-07-20T04:15:43;4.35;;;2.22;;
51216;SDS011;37283;49.760;8.648;2023-07-20T04:18:09;5.57;;;2.13;;
51216;SDS011;37283;49.760;8.648;2023-07-20T04:20:36;4.25;;;2.10;;
51216;SDS011;37283;49.760;8.648;2023-07-20T04:23:03;5.03;;;2.00;;
51216;SDS011;37283;49.760;8.648;2023-07-20T04:25:30;5.13;;;2.05;;
51216;SDS011;37283;49.760;8.648;2023-07-20T04:28:06;4.57;;;2.38;;
51216;SDS011;37283;49.760;8.648;2023-07-20T04:30:42;4.00;;;2.28;;
51216;SDS011;37283;49.760;8.648;2023-07-20T04:33:09;5.75;;;2.38;;
51216;SDS011;37283;49.760;8.648;2023-07-20T04:35:52;5.20;;;2.30;;
51216;SDS011;37283;49.760;8.648;2023-07-20T04:38:26;4.15;;;2.10;;
51216;SDS011;37283;49.760;8.648;2023-07-20T04:41:03;4.40;;;2.47;;
51216;SDS011;37283;49.760;8.648;2023-07-20T04:43:34;4.20;;;2.10;;
51216;SDS011;37283;49.760;8.648;2023-07-20T04:46:01;4.93;;;2.40;;
51216;SDS011;37283;49.760;8.648;2023-07-20T04:48:30;4.00;;;2.05;;
51216;SDS011;37283;49.760;8.648;2023-07-20T04:50:57;4.85;;;2.30;;
51216;SDS011;37283;49.760;8.648;2023-07-20T04:53:24;5.57;;;2.30;;
51216;SDS011;37283;49.760;8.648;2023-07-20T04:55:51;6.40;;;2.33;;
51216;SDS011;37283;49.760;8.648;2023-07-20T04:58:20;6.40;;;2.30;;
51216;SDS011;37283;49.760;8.648;2023-07-20T05:00:48;4.35;;;1.88;;
51216;SDS011;37283;49.760;8.648;2023-07-20T05:03:15;4.85;;;1.98;;
51216;SDS011;37283;49.760;8.648;2023-07-20T05:05:41;5.20;;;1.83;;
51216;SDS011;37283;49.760;8.648;2023-07-20T05:08:10;5.05;;;2.33;;
51216;SDS011;37283;49.760;8.648;2023-07-20T05:10:36;4.57;;;2.10;;
51216;SDS011;37283;49.760;8.648;2023-07-20T05:13:03;5.82;;;2.20;;
51216;SDS011;37283;49.760;8.648;2023-07-20T05:15:32;6.97;;;2.47;;
51216;SDS011;37283;49.760;8.648;2023-07-20T05:20:26;4.40;;;1.73;;
51216;SDS011;37283;49.760;8.648;2023-07-20T05:22:53;3.80;;;1.90;;
51216;SDS011;37283;49.760;8.648;2023-07-20T05:25:20;5.40;;;2.28;;
51216;SDS011;37283;49.760;8.648;2023-07-20T05:27:49;4.38;;;2.25;;
51216;SDS011;37283;49.760;8.648;2023-07-20T05:30:16;4.88;;;2.20;;
51216;SDS011;37283;49.760;8.648;2023-07-20T05:32:43;4.00;;;2.17;;
51216;SDS011;37283;49.760;8.648;2023-07-20T05:35:11;4.53;;;2.10;;
51216;SDS011;37283;49.760;8.648;2023-07-20T05:37:38;4.47;;;2.30;;
51216;SDS011;37283;49.760;8.648;2023-07-20T05:40:05;6.88;;;2.75;;
51216;SDS011;37283;49.760;8.648;2023-07-20T05:42:34;4.50;;;2.38;;
51216;SDS011;37283;49.760;8.648;2023-07-20T05:45:00;3.75;;;2.20;;
51216;SDS011;37283;49.760;8.648;2023-07-20T05:47:27;4.63;;;2.20;;
51216;SDS011;37283;49.760;8.648;2023-07-20T05:49:53;6.80;;;2.30;;
51216;SDS011;37283;49.760;8.648;2023-07-20T05:52:20;4.18;;;1.95;;
51216;SDS011;37283;49.760;8.648;2023-07-20T05:54:47;5.78;;;2.33;;
51216;SDS011;37283;49.760;8.648;2023-07-20T05:57:13;7.35;;;2.22;;
51216;SDS011;37283;49.760;8.648;2023-07-20T05:59:40;5.22;;;2.25;;
51216;SDS011;37283;49.760;8.648;2023-07-20T06:02:10;5.50;;;2.40;;
51216;SDS011;37283;49.760;8.648;2023-07-20T06:04:38;5.85;;;2.58;;
51216;SDS011;37283;49.760;8.648;2023-07-20T06:07:05;6.68;;;2.28;;
51216;SDS011;37283;49.760;8.648;2023-07-20T06:09:32;4.82;;;2.03;;
51216;SDS011;37283;49.760;8.648;2023-07-20T06:11:58;4.63;;;2.47;;
51216;SDS011;37283;49.760;8.648;2023-07-20T06:14:25;8.82;;;2.50;;
51216;SDS011;37283;49.760;8.648;2023-07-20T06:16:51;5.75;;;2.38;;
51216;SDS011;37283;49.760;8.648;2023-07-20T06:19:18;7.20;;;2.15;;
51216;SDS011;37283;49.760;8.648;2023-07-20T06:21:44;4.97;;;2.28;;
51216;SDS011;37283;49.760;8.648;2023-07-20T06:24:11;4.40;;;2.65;;
51216;SDS011;37283;49.760;8.648;2023-07-20T06:26:37;6.93;;;2.42;;
51216;SDS011;37283;49.760;8.648;2023-07-20T06:29:05;6.07;;;3.08;;
51216;SDS011;37283;49.760;8.648;2023-07-20T06:31:35;5.65;;;2.40;;
51216;SDS011;37283;49.760;8.648;2023-07-20T06:34:02;4.50;;;2.40;;
51216;SDS011;37283;49.760;8.648;2023-07-20T06:36:29;5.32;;;2.45;;
51216;SDS011;37283;49.760;8.648;2023-07-20T06:38:56;4.78;;;2.30;;
51216;SDS011;37283;49.760;8.648;2023-07-20T06:41:25;8.63;;;2.60;;
51216;SDS011;37283;49.760;8.648;2023-07-20T06:43:54;4.80;;;2.13;;
51216;SDS011;37283;49.760;8.648;2023-07-20T06:46:25;5.68;;;2.40;;
51216;SDS011;37283;49.760;8.648;2023-07-20T06:48:53;6.22;;;2.20;;
51216;SDS011;37283;49.760;8.648;2023-07-20T06:51:22;5.30;;;2.35;;
51216;SDS011;37283;49.760;8.648;2023-07-20T06:53:49;5.13;;;2.35;;
51216;SDS011;37283;49.760;8.648;2023-07-20T06:56:16;6.88;;;2.58;;
51216;SDS011;37283;49.760;8.648;2023-07-20T06:58:42;3.88;;;2.20;;
51216;SDS011;37283;49.760;8.648;2023-07-20T07:01:09;6.82;;;2.40;;
51216;SDS011;37283;49.760;8.648;2023-07-20T07:03:36;4.00;;;2.28;;
51216;SDS011;37283;49.760;8.648;2023-07-20T07:06:03;9.48;;;2.55;;
51216;SDS011;37283;49.760;8.648;2023-07-20T07:08:30;9.40;;;2.90;;
51216;SDS011;37283;49.760;8.648;2023-07-20T07:10:56;8.75;;;2.58;;
51216;SDS011;37283;49.760;8.648;2023-07-20T07:13:23;4.60;;;2.75;;
51216;SDS011;37283;49.760;8.648;2023-07-20T07:15:50;5.40;;;2.50;;
51216;SDS011;37283;49.760;8.648;2023-07-20T07:18:17;6.32;;;2.90;;
51216;SDS011;37283;49.760;8.648;2023-07-20T07:23:16;4.50;;;2.78;;
51216;SDS011;37283;49.760;8.648;2023-07-20T07:25:43;6.88;;;2.50;;
51216;SDS011;37283;49.760;8.648;2023-07-20T07:28:09;6.20;;;2.78;;
51216;SDS011;37283;49.760;8.648;2023-07-20T07:30:36;4.93;;;2.45;;
51216;SDS011;37283;49.760;8.648;2023-07-20T07:33:03;4.80;;;2.40;;
51216;SDS011;37283;49.760;8.648;2023-07-20T07:35:30;3.92;;;2.25;;
51216;SDS011;37283;49.760;8.648;2023-07-20T07:37:56;4.18;;;1.98;;
51216;SDS011;37283;49.760;8.648;2023-07-20T07:40:29;4.85;;;2.28;;
51216;SDS011;37283;49.760;8.648;2023-07-20T07:42:56;5.00;;;2.42;;
51216;SDS011;37283;49.760;8.648;2023-07-20T07:45:22;8.10;;;2.10;;
51216;SDS011;37283;49.760;8.648;2023-07-20T07:47:49;7.28;;;2.05;;
51216;SDS011;37283;49.760;8.648;2023-07-20T07:50:15;4.40;;;2.03;;
51216;SDS011;37283;49.760;8.648;2023-07-20T07:52:42;3.67;;;2.30;;
51216;SDS011;37283;49.760;8.648;2023-07-20T07:55:08;5.20;;;2.38;;
51216;SDS011;37283;49.760;8.648;2023-07-20T07:57:35;4.82;;;2.33;;
51216;SDS011;37283;49.760;8.648;2023-07-20T08:00:01;5.40;;;2.28;;
51216;SDS011;37283;49.760;8.648;2023-07-20T08:02:30;10.25;;;2.53;;
51216;SDS011;37283;49.760;8.648;2023-07-20T08:04:56;8.88;;;2.45;;
51216;SDS011;37283;49.760;8.648;2023-07-20T08:07:23;5.10;;;2.55;;
51216;SDS011;37283;49.760;8.648;2023-07-20T08:09:49;4.88;;;2.50;;
51216;SDS011;37283;49.760;8.648;2023-07-20T08:12:16;5.28;;;2.15;;
51216;SDS011;37283;49.760;8.648;2023-07-20T08:14:44;5.13;;;2.20;;
51216;SDS011;37283;49.760;8.648;2023-07-20T08:17:11;3.80;;;2.28;;
51216;SDS011;37283;49.760;8.648;2023-07-20T08:19:37;5.43;;;1.90;;
51216;SDS011;37283;49.760;8.648;2023-07-20T08:22:07;7.30;;;2.30;;
51216;SDS011;37283;49.760;8.648;2023-07-20T08:24:38;2.95;;;1.67;;
51216;SDS011;37283;49.760;8.648;2023-07-20T08:27:06;6.80;;;2.00;;
51216;SDS011;37283;49.760;8.648;2023-07-20T08:29:32;6.80;;;2.30;;
51216;SDS011;37283;49.760;8.648;2023-07-20T08:31:59;4.45;;;2.00;;
51216;SDS011;37283;49.760;8.648;2023-07-20T08:34:26;5.22;;;2.45;;
51216;SDS011;37283;49.760;8.648;2023-07-20T08:36:57;4.88;;;2.58;;
51216;SDS011;37283;49.760;8.648;2023-07-20T08:39:24;4.55;;;2.00;;
51216;SDS011;37283;49.760;8.648;2023-07-20T08:41:51;5.05;;;2.40;;
51216;SDS011;37283;49.760;8.648;2023-07-20T08:44:20;4.20;;;2.10;;
51216;SDS011;37283;49.760;8.648;2023-07-20T08:46:48;4.68;;;2.10;;
51216;SDS011;37283;49.760;8.648;2023-07-20T08:49:16;2.90;;;2.03;;
51216;SDS011;37283;49.760;8.648;2023-07-20T08:51:45;3.15;;;2.20;;
51216;SDS011;37283;49.760;8.648;2023-07-20T08:54:13;5.78;;;2.50;;
51216;SDS011;37283;49.760;8.648;2023-07-20T08:56:40;7.78;;;2.25;;
51216;SDS011;37283;49.760;8.648;2023-07-20T08:59:07;4.13;;;2.40;;
51216;SDS011;37283;49.760;8.648;2023-07-20T09:01:34;7.20;;;2.20;;
51216;SDS011;37283;49.760;8.648;2023-07-20T09:04:02;3.05;;;1.83;;
51216;SDS011;37283;49.760;8.648;2023-07-20T09:06:29;5.00;;;2.00;;
51216;SDS011;37283;49.760;8.648;2023-07-20T09:08:56;3.83;;;1.80;;
51216;SDS011;37283;49.760;8.648;2023-07-20T09:11:23;3.50;;;1.70;;
51216;SDS011;37283;49.760;8.648;2023-07-20T09:14:01;3.10;;;1.77;;
51216;SDS011;37283;49.760;8.648;2023-07-20T09:16:47;2.95;;;1.92;;
51216;SDS011;37283;49.760;8.648;2023-07-20T09:19:21;5.32;;;1.83;;
51216;SDS011;37283;49.760;8.648;2023-07-20T09:21:48;5.88;;;1.70;;
51216;SDS011;37283;49.760;8.648;2023-07-20T09:24:17;5.70;;;2.03;;
51216;SDS011;37283;49.760;8.648;2023-07-20T09:26:44;5.23;;;2.50;;
51216;SDS011;37283;49.760;8.648;2023-07-20T09:29:14;3.50;;;2.10;;
51216;SDS011;37283;49.760;8.648;2023-07-20T09:31:42;5.93;;;1.87;;
51216;SDS011;37283;49.760;8.648;2023-07-20T09:34:08;3.97;;;2.15;;
51216;SDS011;37283;49.760;8.648;2023-07-20T09:36:35;4.65;;;1.77;;
51216;SDS011;37283;49.760;8.648;2023-07-20T09:39:05;4.28;;;1.58;;
51216;SDS011;37283;49.760;8.648;2023-07-20T09:41:41;2.47;;;1.52;;
51216;SDS011;37283;49.760;8.648;2023-07-20T09:44:15;3.40;;;1.73;;
51216;SDS011;37283;49.760;8.648;2023-07-20T09:46:48;3.67;;;2.08;;
51216;SDS011;37283;49.760;8.648;2023-07-20T09:49:18;2.83;;;1.70;;
51216;SDS011;37283;49.760;8.648;2023-07-20T09:51:47;6.28;;;1.80;;
51216;SDS011;37283;49.760;8.648;2023-07-20T09:54:15;3.25;;;1.40;;
51216;SDS011;37283;49.760;8.648;2023-07-20T09:56:42;2.67;;;1.30;;
51216;SDS011;37283;49.760;8.648;2023-07-20T09:59:09;3.58;;;1.63;;
51216;SDS011;37283;49.760;8.648;2023-07-20T10:01:35;3.22;;;1.33;;
51216;SDS011;37283;49.760;8.648;2023-07-20T10:04:05;3.85;;;1.55;;
51216;SDS011;37283;49.760;8.648;2023-07-20T10:06:33;3.10;;;1.58;;
51216;SDS011;37283;49.760;8.648;2023-07-20T10:09:03;3.78;;;1.50;;
51216;SDS011;37283;49.760;8.648;2023-07-20T10:11:30;3.60;;;1.65;;
51216;SDS011;37283;49.760;8.648;2023-07-20T10:13:58;3.17;;;1.85;;
51216;SDS011;37283;49.760;8.648;2023-07-20T10:16:28;3.03;;;1.60;;
51216;SDS011;37283;49.760;8.648;2023-07-20T10:19:05;3.90;;;1.42;;
51216;SDS011;37283;49.760;8.648;2023-07-20T10:21:39;3.22;;;1.40;;
51216;SDS011;37283;49.760;8.648;2023-07-20T10:24:09;2.25;;;1.20;;
51216;SDS011;37283;49.760;8.648;2023-07-20T10:26:37;2.60;;;1.50;;
51216;SDS011;37283;49.760;8.648;2023-07-20T10:29:07;2.58;;;1.40;;
51216;SDS011;37283;49.760;8.648;2023-07-20T10:31:34;4.90;;;1.80;;
51216;SDS011;37283;49.760;8.648;2023-07-20T10:34:02;4.68;;;1.38;;
51216;SDS011;37283;49.760;8.648;2023-07-20T10:36:28;3.20;;;1.30;;
51216;SDS011;37283;49.760;8.648;2023-07-20T10:38:57;3.47;;;1.63;;
51216;SDS011;37283;49.760;8.648;2023-07-20T10:41:28;4.40;;;1.45;;
51216;SDS011;37283;49.760;8.648;2023-07-20T10:44:02;3.90;;;1.52;;
51216;SDS011;37283;49.760;8.648;2023-07-20T10:46:34;3.00;;;1.30;;
51216;SDS011;37283;49.760;8.648;2023-07-20T10:49:07;1.75;;;1.00;;
51216;SDS011;37283;49.760;8.648;2023-07-20T10:51:39;2.35;;;1.27;;
51216;SDS011;37283;49.760;8.648;2023-07-20T10:54:33;4.95;;;1.40;;
51216;SDS011;37283;49.760;8.648;2023-07-20T10:57:21;2.75;;;1.38;;
51216;SDS011;37283;49.760;8.648;2023-07-20T10:59:48;2.80;;;1.27;;
51216;SDS011;37283;49.760;8.648;2023-07-20T11:02:17;3.47;;;1.50;;
51216;SDS011;37283;49.760;8.648;2023-07-20T11:04:45;2.20;;;1.23;;
51216;SDS011;37283;49.760;8.648;2023-07-20T11:07:16;2.83;;;1.38;;
51216;SDS011;37283;49.760;8.648;2023-07-20T11:09:43;1.63;;;1.35;;
51216;SDS011;37283;49.760;8.648;2023-07-20T11:12:15;1.98;;;1.38;;
51216;SDS011;37283;49.760;8.648;2023-07-20T11:17:14;4.55;;;1.70;;
51216;SDS011;37283;49.760;8.648;2023-07-20T11:19:41;3.35;;;1.40;;
51216;SDS011;37283;49.760;8.648;2023-07-20T11:22:10;1.88;;;1.20;;
51216;SDS011;37283;49.760;8.648;2023-07-20T11:24:40;1.85;;;1.35;;
51216;SDS011;37283;49.760;8.648;2023-07-20T11:27:08;2.35;;;1.15;;
51216;SDS011;37283;49.760;8.648;2023-07-20T11:29:35;3.30;;;1.27;;
51216;SDS011;37283;49.760;8.648;2023-07-20T11:32:04;1.70;;;1.00;;
51216;SDS011;37283;49.760;8.648;2023-07-20T11:34:32;2.63;;;1.05;;
51216;SDS011;37283;49.760;8.648;2023-07-20T11:37:00;2.78;;;1.10;;
51216;SDS011;37283;49.760;8.648;2023-07-20T11:39:30;2.95;;;1.20;;
51216;SDS011;37283;49.760;8.648;2023-07-20T11:41:56;3.50;;;1.40;;
51216;SDS011;37283;49.760;8.648;2023-07-20T11:44:24;3.50;;;1.77;;
51216;SDS011;37283;49.760;8.648;2023-07-20T11:47:03;1.92;;;1.27;;
51216;SDS011;37283;49.760;8.648;2023-07-20T11:49:35;2.83;;;1.10;;
51216;SDS011;37283;49.760;8.648;2023-07-20T11:52:03;2.47;;;1.20;;
51216;SDS011;37283;49.760;8.648;2023-07-20T11:54:32;1.88;;;1.20;;
51216;SDS011;37283;49.760;8.648;2023-07-20T11:57:02;2.58;;;1.38;;
51216;SDS011;37283;49.760;8.648;2023-07-20T11:59:29;2.25;;;1.20;;
51216;SDS011;37283;49.760;8.648;2023-07-20T12:02:01;2.10;;;1.13;;
51216;SDS011;37283;49.760;8.648;2023-07-20T12:04:30;3.05;;;1.20;;
51216;SDS011;37283;49.760;8.648;2023-07-20T12:06:57;2.10;;;1.30;;
51216;SDS011;37283;49.760;8.648;2023-07-20T12:09:24;3.40;;;1.30;;
51216;SDS011;37283;49.760;8.648;2023-07-20T12:12:09;2.10;;;1.40;;
51216;SDS011;37283;49.760;8.648;2023-07-20T12:14:38;2.35;;;1.23;;
51216;SDS011;37283;49.760;8.648;2023-07-20T12:17:04;9.60;;;1.40;;
51216;SDS011;37283;49.760;8.648;2023-07-20T12:19:37;4.55;;;1.25;;
51216;SDS011;37283;49.760;8.648;2023-07-20T12:22:04;2.45;;;1.30;;
51216;SDS011;37283;49.760;8.648;2023-07-20T12:24:32;1.98;;;1.20;;
51216;SDS011;37283;49.760;8.648;2023-07-20T12:26:59;2.30;;;1.20;;
51216;SDS011;37283;49.760;8.648;2023-07-20T12:29:25;3.45;;;1.27;;
51216;SDS011;37283;49.760;8.648;2023-07-20T12:31:52;2.45;;;1.33;;
51216;SDS011;37283;49.760;8.648;2023-07-20T12:34:19;2.92;;;1.20;;
51216;SDS011;37283;49.760;8.648;2023-07-20T12:36:45;3.55;;;1.27;;
51216;SDS011;37283;49.760;8.648;2023-07-20T12:39:12;2.95;;;1.70;;
51216;SDS011;37283;49.760;8.648;2023-07-20T12:41:38;2.63;;;1.30;;
51216;SDS011;37283;49.760;8.648;2023-07-20T12:44:05;2.67;;;1.20;;
51216;SDS011;37283;49.760;8.648;2023-07-20T12:46:32;2.17;;;1.00;;
51216;SDS011;37283;49.760;8.648;2023-07-20T12:49:01;2.22;;;1.15;;
51216;SDS011;37283;49.760;8.648;2023-07-20T12:51:28;2.60;;;1.17;;
51216;SDS011;37283;49.760;8.648;2023-07-20T12:53:55;2.63;;;1.20;;
51216;SDS011;37283;49.760;8.648;2023-07-20T12:56:21;5.38;;;1.17;;
51216;SDS011;37283;49.760;8.648;2023-07-20T12:58:51;2.83;;;1.45;;
51216;SDS011;37283;49.760;8.648;2023-07-20T13:01:17;2.33;;;1.10;;
51216;SDS011;37283;49.760;8.648;2023-07-20T13:03:44;3.10;;;1.17;;
51216;SDS011;37283;49.760;8.648;2023-07-20T13:06:14;3.13;;;1.25;;
51216;SDS011;37283;49.760;8.648;2023-07-20T13:08:44;2.92;;;1.50;;
51216;SDS011;37283;49.760;8.648;2023-07-20T13:11:10;2.17;;;1.20;;
51216;SDS011;37283;49.760;8.648;2023-07-20T13:13:37;2.63;;;1.33;;
51216;SDS011;37283;49.760;8.648;2023-07-20T13:16:03;3.05;;;1.33;;
51216;SDS011;37283;49.760;8.648;2023-07-20T13:18:30;2.15;;;1.42;;
51216;SDS011;37283;49.760;8.648;2023-07-20T13:20:57;2.72;;;1.40;;
51216;SDS011;37283;49.760;8.648;2023-07-20T13:23:27;3.45;;;1.05;;
51216;SDS011;37283;49.760;8.648;2023-07-20T13:25:54;1.98;;;1.20;;
51216;SDS011;37283;49.760;8.648;2023-07-20T13:28:20;6.22;;;1.38;;
51216;SDS011;37283;49.760;8.648;2023-07-20T13:30:47;2.70;;;1.30;;
51216;SDS011;37283;49.760;8.648;2023-07-20T13:33:13;2.33;;;1.10;;
51216;SDS011;37283;49.760;8.648;2023-07-20T13:35:43;4.88;;;1.40;;
51216;SDS011;37283;49.760;8.648;2023-07-20T13:38:13;2.75;;;1.20;;
51216;SDS011;37283;49.760;8.648;2023-07-20T13:40:40;5.88;;;1.50;;
51216;SDS011;37283;49.760;8.648;2023-07-20T13:43:06;2.88;;;1.20;;
51216;SDS011;37283;49.760;8.648;2023-07-20T13:45:33;2.08;;;1.40;;
51216;SDS011;37283;49.760;8.648;2023-07-20T13:47:59;2.35;;;1.30;;
51216;SDS011;37283;49.760;8.648;2023-07-20T13:50:29;2.22;;;1.20;;
51216;SDS011;37283;49.760;8.648;2023-07-20T13:53:07;3.55;;;1.27;;
51216;SDS011;37283;49.760;8.648;2023-07-20T13:55:37;2.70;;;1.38;;
51216;SDS011;37283;49.760;8.648;2023-07-20T13:58:07;1.90;;;1.20;;
51216;SDS011;37283;49.760;8.648;2023-07-20T14:00:38;2.40;;;1.35;;
51216;SDS011;37283;49.760;8.648;2023-07-20T14:03:05;2.65;;;1.38;;
51216;SDS011;37283;49.760;8.648;2023-07-20T14:05:34;3.80;;;1.40;;
51216;SDS011;37283;49.760;8.648;2023-07-20T14:08:04;4.60;;;1.38;;
51216;SDS011;37283;49.760;8.648;2023-07-20T14:10:31;3.03;;;1.30;;
51216;SDS011;37283;49.760;8.648;2023-07-20T14:12:58;3.08;;;1.48;;
51216;SDS011;37283;49.760;8.648;2023-07-20T14:15:24;2.88;;;1.20;;
51216;SDS011;37283;49.760;8.648;2023-07-20T14:17:51;3.33;;;1.02;;
51216;SDS011;37283;49.760;8.648;2023-07-20T14:20:19;4.03;;;1.33;;
51216;SDS011;37283;49.760;8.648;2023-07-20T14:22:49;2.13;;;1.23;;
51216;SDS011;37283;49.760;8.648;2023-07-20T14:25:17;2.35;;;1.13;;
51216;SDS011;37283;49.760;8.648;2023-07-20T14:27:45;2.65;;;1.25;;
51216;SDS011;37283;49.760;8.648;2023-07-20T14:30:12;3.45;;;1.20;;
51216;SDS011;37283;49.760;8.648;2023-07-20T14:32:38;3.65;;;1.50;;
51216;SDS011;37283;49.760;8.648;2023-07-20T14:35:07;4.20;;;1.30;;
51216;SDS011;37283;49.760;8.648;2023-07-20T14:37:36;2.83;;;1.30;;
51216;SDS011;37283;49.760;8.648;2023-07-20T14:40:02;2.50;;;1.10;;
51216;SDS011;37283;49.760;8.648;2023-07-20T14:42:34;2.45;;;1.23;;
51216;SDS011;37283;49.760;8.648;2023-07-20T14:45:00;1.80;;;1.05;;
51216;SDS011;37283;49.760;8.648;2023-07-20T14:47:27;2.70;;;1.45;;
51216;SDS011;37283;49.760;8.648;2023-07-20T14:49:54;2.53;;;1.20;;
51216;SDS011;37283;49.760;8.648;2023-07-20T14:52:20;2.78;;;1.30;;
51216;SDS011;37283;49.760;8.648;2023-07-20T14:54:47;3.95;;;1.48;;
51216;SDS011;37283;49.760;8.648;2023-07-20T14:57:13;2.17;;;1.30;;
51216;SDS011;37283;49.760;8.648;2023-07-20T14:59:41;2.55;;;1.40;;
51216;SDS011;37283;49.760;8.648;2023-07-20T15:02:11;4.65;;;1.45;;
51216;SDS011;37283;49.760;8.648;2023-07-20T15:04:37;4.05;;;1.30;;
51216;SDS011;37283;49.760;8.648;2023-07-20T15:07:06;3.40;;;1.30;;
51216;SDS011;37283;49.760;8.648;2023-07-20T15:09:32;3.70;;;1.40;;
51216;SDS011;37283;49.760;8.648;2023-07-20T15:12:00;3.22;;;1.20;;
51216;SDS011;37283;49.760;8.648;2023-07-20T15:14:27;2.58;;;1.55;;